createdAt,value
2022-12-15T00:02:19.250Z,19.57
2022-12-15T00:05:04.939Z,15.93
2022-12-15T00:07:50.314Z,13.80
2022-12-15T00:10:35.457Z,16.90
2022-12-15T00:13:20.793Z,11.50
2022-12-15T00:16:06.555Z,14.13
2022-12-15T00:18:52.472Z,11.90
2022-12-15T00:21:37.779Z,16.90
2022-12-15T00:24:23.043Z,15.53
2022-12-15T00:27:08.446Z,12.50
2022-12-15T00:29:54.210Z,14.53
2022-12-15T00:32:41.145Z,9.77
2022-12-15T00:35:27.706Z,12.63
2022-12-15T00:38:12.913Z,19.43
2022-12-15T00:40:39.511Z,15.20
2022-12-15T00:43:06.183Z,16.27
2022-12-15T00:45:51.263Z,14.80
2022-12-15T00:48:17.823Z,16.40
2022-12-15T00:50:53.813Z,11.13
2022-12-15T00:53:41.061Z,13.87
2022-12-15T00:56:27.224Z,13.00
2022-12-15T00:59:13.511Z,17.67
2022-12-15T01:01:59.134Z,18.30
2022-12-15T01:04:46.687Z,12.40
2022-12-15T01:07:32.491Z,11.67
2022-12-15T01:10:17.726Z,18.00
2022-12-15T01:13:03.958Z,11.07
2022-12-15T01:15:49.375Z,19.27
2022-12-15T01:18:35.224Z,13.10
2022-12-15T01:21:04.904Z,13.10
2022-12-15T01:23:33.118Z,14.03
2022-12-15T01:26:00.773Z,14.10
2022-12-15T01:28:27.575Z,12.00
2022-12-15T01:30:54.498Z,11.40
2022-12-15T01:33:22.103Z,12.13
2022-12-15T01:36:02.022Z,14.60
2022-12-15T01:38:28.792Z,13.80
2022-12-15T01:40:59.516Z,17.43
2022-12-15T01:43:30.063Z,14.40
2022-12-15T01:46:01.687Z,19.07
2022-12-15T01:48:47.148Z,23.80
2022-12-15T01:51:16.039Z,14.37
2022-12-15T01:54:06.373Z,13.30
2022-12-15T01:56:38.600Z,17.03
2022-12-15T01:59:09.236Z,15.40
2022-12-15T02:01:36.366Z,13.60
2022-12-15T02:04:03.615Z,11.70
2022-12-15T02:06:30.555Z,13.33
2022-12-15T02:08:59.435Z,13.33
2022-12-15T02:11:50.190Z,13.50
2022-12-15T02:14:27.115Z,9.80
2022-12-15T02:16:56.346Z,10.60
2022-12-15T02:19:43.555Z,16.93
2022-12-15T02:22:19.734Z,12.10
2022-12-15T02:25:08.772Z,11.00
2022-12-15T02:28:04.944Z,10.80
2022-12-15T02:31:12.633Z,12.60
2022-12-15T02:34:05.458Z,10.30
2022-12-15T02:36:47.806Z,10.70
2022-12-15T02:39:15.244Z,14.57
2022-12-15T02:41:44.473Z,18.77
2022-12-15T02:44:13.132Z,11.17
2022-12-15T02:46:45.325Z,13.63
2022-12-15T02:49:40.118Z,10.70
2022-12-15T02:52:30.741Z,15.77
2022-12-15T02:55:31.236Z,12.50
2022-12-15T02:58:07.025Z,13.73
2022-12-15T03:00:40.989Z,14.60
2022-12-15T03:03:08.260Z,14.87
2022-12-15T03:05:35.438Z,13.40
2022-12-15T03:08:02.424Z,25.47
2022-12-15T03:10:29.058Z,18.30
2022-12-15T03:12:55.672Z,14.53
2022-12-15T03:15:22.257Z,13.33
2022-12-15T03:17:48.874Z,11.50
2022-12-15T03:20:15.922Z,11.60
2022-12-15T03:22:42.656Z,19.53
2022-12-15T03:25:09.609Z,10.30
2022-12-15T03:27:36.740Z,12.30
2022-12-15T03:30:05.523Z,12.67
2022-12-15T03:32:32.251Z,12.10
2022-12-15T03:34:58.793Z,11.10
2022-12-15T03:37:25.414Z,14.07
2022-12-15T03:39:52.369Z,12.40
2022-12-15T03:42:39.123Z,13.90
2022-12-15T03:45:06.402Z,14.83
2022-12-15T03:47:32.945Z,11.30
2022-12-15T03:49:59.588Z,12.30
2022-12-15T03:52:26.185Z,12.33
2022-12-15T03:54:52.737Z,13.00
2022-12-15T03:57:19.335Z,12.10
2022-12-15T03:59:45.918Z,9.77
2022-12-15T04:02:12.608Z,12.30
2022-12-15T04:04:40.638Z,11.20
2022-12-15T04:07:07.231Z,10.97
2022-12-15T04:09:34.169Z,12.60
2022-12-15T04:12:03.187Z,16.87
2022-12-15T04:14:30.196Z,16.63
2022-12-15T04:16:57.347Z,12.47
2022-12-15T04:19:42.820Z,17.03
2022-12-15T04:22:12.556Z,13.67
2022-12-15T04:25:00.561Z,11.27
2022-12-15T04:27:45.785Z,15.97
2022-12-15T04:30:31.311Z,11.43
2022-12-15T04:33:17.914Z,11.47
2022-12-15T04:36:03.299Z,13.03
2022-12-15T04:38:50.045Z,11.10
2022-12-15T04:41:37.753Z,7.33
2022-12-15T04:44:23.911Z,9.27
2022-12-15T04:47:09.137Z,10.80
2022-12-15T04:49:54.546Z,12.37
2022-12-15T04:52:39.958Z,14.53
2022-12-15T04:55:25.272Z,8.17
2022-12-15T04:58:10.577Z,12.00
2022-12-15T05:00:56.028Z,11.80
2022-12-15T05:03:41.428Z,10.77
2022-12-15T05:06:26.816Z,12.67
2022-12-15T05:09:12.190Z,13.13
2022-12-15T05:11:57.911Z,12.20
2022-12-15T05:14:43.170Z,11.17
2022-12-15T05:17:28.738Z,12.53
2022-12-15T05:20:14.021Z,17.67
2022-12-15T05:22:59.500Z,15.60
2022-12-15T05:25:44.822Z,15.10
2022-12-15T05:28:30.128Z,16.33
2022-12-15T05:31:16.987Z,11.20
2022-12-15T05:33:43.741Z,15.13
2022-12-15T05:36:10.293Z,13.10
2022-12-15T05:38:36.835Z,11.40
2022-12-15T05:41:03.701Z,16.77
2022-12-15T05:43:30.645Z,14.20
2022-12-15T05:46:03.016Z,16.63
2022-12-15T05:48:29.860Z,13.23
2022-12-15T05:50:56.485Z,14.37
2022-12-15T05:53:23.027Z,14.13
2022-12-15T05:55:49.607Z,13.00
2022-12-15T05:58:16.127Z,8.23
2022-12-15T06:00:42.819Z,13.40
2022-12-15T06:03:09.405Z,12.83
2022-12-15T06:05:36.016Z,12.47
2022-12-15T06:08:03.008Z,16.77
2022-12-15T06:10:29.729Z,14.27
2022-12-15T06:12:56.572Z,14.10
2022-12-15T06:15:23.166Z,11.67
2022-12-15T06:17:49.906Z,12.10
2022-12-15T06:20:16.640Z,7.40
2022-12-15T06:22:48.132Z,10.20
2022-12-15T06:25:17.667Z,6.47
2022-12-15T06:27:44.267Z,9.20
2022-12-15T06:30:11.419Z,13.47
2022-12-15T06:32:37.947Z,8.00
2022-12-15T06:35:04.854Z,11.30
2022-12-15T06:37:31.419Z,13.50
2022-12-15T06:39:58.000Z,17.50
2022-12-15T06:42:24.524Z,21.53
2022-12-15T06:44:51.058Z,18.10
2022-12-15T06:47:17.606Z,14.83
2022-12-15T06:49:44.278Z,10.57
2022-12-15T06:52:10.835Z,12.93
2022-12-15T06:54:37.390Z,11.70
2022-12-15T06:57:03.965Z,13.73
2022-12-15T06:59:30.927Z,14.03
2022-12-15T07:01:57.956Z,13.00
2022-12-15T07:04:24.841Z,12.13
2022-12-15T07:06:51.811Z,11.80
2022-12-15T07:09:18.468Z,10.67
2022-12-15T07:11:46.422Z,9.93
2022-12-15T07:14:12.986Z,11.10
2022-12-15T07:16:39.652Z,13.10
2022-12-15T07:19:06.299Z,13.40
2022-12-15T07:21:32.993Z,12.83
2022-12-15T07:24:00.771Z,16.40
2022-12-15T07:26:28.205Z,17.87
2022-12-15T07:28:54.835Z,12.57
2022-12-15T07:31:22.304Z,19.60
2022-12-15T07:33:49.206Z,17.13
2022-12-15T07:36:16.136Z,16.53
2022-12-15T07:38:42.795Z,15.37
2022-12-15T07:41:10.005Z,13.40
2022-12-15T07:43:37.608Z,19.20
2022-12-15T07:46:05.444Z,17.23
2022-12-15T07:48:32.971Z,19.27
2022-12-15T07:51:11.016Z,18.47
2022-12-15T07:53:42.147Z,13.33
2022-12-15T07:56:10.146Z,12.20
2022-12-15T07:58:38.395Z,11.60
2022-12-15T08:01:07.378Z,11.37
2022-12-15T08:03:36.144Z,13.63
2022-12-15T08:06:05.339Z,8.93
2022-12-15T08:08:33.170Z,14.33
2022-12-15T08:11:04.806Z,10.27
2022-12-15T08:14:01.543Z,15.07
2022-12-15T08:16:18.902Z,11.90
2022-12-15T08:18:45.598Z,13.67
2022-12-15T08:21:12.189Z,13.33
2022-12-15T08:23:40.219Z,10.63
2022-12-15T08:26:10.748Z,16.27
2022-12-15T08:28:38.899Z,10.40
2022-12-15T08:31:07.604Z,10.57
2022-12-15T08:33:35.020Z,16.53
2022-12-15T08:36:05.443Z,12.00
2022-12-15T08:38:33.285Z,11.43
2022-12-15T08:41:11.194Z,9.33
2022-12-15T08:43:45.549Z,12.27
2022-12-15T08:46:15.879Z,16.60
2022-12-15T08:48:42.987Z,14.73
2022-12-15T08:51:10.266Z,11.73
2022-12-15T08:53:36.922Z,11.97
2022-12-15T08:56:09.927Z,15.00
2022-12-15T08:58:36.745Z,16.20
2022-12-15T09:01:09.685Z,15.43
2022-12-15T09:03:37.658Z,14.93
2022-12-15T09:06:06.688Z,12.37
2022-12-15T09:08:34.099Z,13.10
2022-12-15T09:11:01.902Z,12.70
2022-12-15T09:13:29.246Z,14.00
2022-12-15T09:16:11.498Z,12.00
2022-12-15T09:18:44.024Z,11.77
2022-12-15T09:21:11.682Z,10.70
2022-12-15T09:23:38.594Z,13.87
2022-12-15T09:26:07.739Z,15.83
2022-12-15T09:28:35.486Z,13.77
2022-12-15T09:31:06.362Z,16.10
2022-12-15T09:33:33.844Z,10.07
2022-12-15T09:36:00.916Z,11.00
2022-12-15T09:38:27.466Z,14.43
2022-12-15T09:40:54.160Z,12.30
2022-12-15T09:43:46.164Z,10.80
2022-12-15T09:46:24.007Z,15.97
2022-12-15T09:48:52.346Z,12.27
2022-12-15T09:51:19.412Z,12.57
2022-12-15T09:53:55.590Z,13.90
2022-12-15T09:56:39.142Z,11.53
2022-12-15T09:59:19.278Z,11.83
2022-12-15T10:01:51.939Z,12.87
2022-12-15T10:04:45.858Z,11.10
2022-12-15T10:07:34.697Z,11.53
2022-12-15T10:10:29.830Z,18.13
2022-12-15T10:13:02.463Z,10.47
2022-12-15T10:15:37.933Z,17.03
2022-12-15T10:18:13.475Z,13.63
2022-12-15T10:20:40.284Z,10.10
2022-12-15T10:23:16.242Z,13.83
2022-12-15T10:25:51.553Z,13.23
2022-12-15T10:28:36.922Z,12.63
2022-12-15T10:31:29.887Z,11.80
2022-12-15T10:34:20.347Z,12.43
2022-12-15T10:36:51.187Z,14.70
2022-12-15T10:39:20.773Z,11.83
2022-12-15T10:42:26.314Z,10.97
2022-12-15T10:44:57.275Z,14.80
2022-12-15T10:47:29.978Z,15.40
2022-12-15T10:50:22.468Z,12.47
2022-12-15T10:52:51.847Z,14.53
2022-12-15T10:55:41.911Z,11.47
2022-12-15T10:58:20.621Z,13.87
2022-12-15T11:00:50.951Z,11.40
2022-12-15T11:03:26.728Z,15.53
2022-12-15T11:05:56.142Z,10.70
2022-12-15T11:08:24.747Z,13.87
2022-12-15T11:11:16.098Z,12.80
2022-12-15T11:13:43.757Z,11.87
2022-12-15T11:16:18.558Z,14.80
2022-12-15T11:18:52.996Z,13.20
2022-12-15T11:21:30.307Z,13.63
2022-12-15T11:24:12.184Z,12.60
2022-12-15T11:26:54.931Z,10.53
2022-12-15T11:29:30.685Z,15.10
2022-12-15T11:32:03.063Z,13.87
2022-12-15T11:34:37.634Z,13.20
2022-12-15T11:37:43.116Z,16.73
2022-12-15T11:40:40.124Z,17.23
2022-12-15T11:43:50.351Z,9.13
2022-12-15T11:46:30.159Z,16.33
2022-12-15T11:49:22.907Z,13.53
2022-12-15T11:52:10.896Z,22.30
2022-12-15T11:54:53.081Z,12.10
2022-12-15T11:57:28.834Z,13.87
2022-12-15T12:00:18.073Z,17.57
2022-12-15T12:03:08.554Z,16.67
2022-12-15T12:05:44.397Z,13.30
2022-12-15T12:08:25.511Z,12.83
2022-12-15T12:11:15.039Z,12.50
2022-12-15T12:13:54.186Z,9.90
2022-12-15T12:16:44.031Z,23.03
2022-12-15T12:19:16.573Z,12.10
2022-12-15T12:21:46.885Z,13.10
2022-12-15T12:24:30.798Z,14.57
2022-12-15T12:27:10.333Z,11.03
2022-12-15T12:29:51.376Z,19.13
2022-12-15T12:32:45.179Z,14.67
2022-12-15T12:35:32.210Z,14.23
2022-12-15T12:38:04.107Z,12.10
2022-12-15T12:40:41.876Z,12.53
2022-12-15T12:43:14.017Z,15.20
2022-12-15T12:45:52.103Z,13.60
2022-12-15T12:48:29.639Z,11.57
2022-12-15T12:51:19.447Z,14.57
2022-12-15T12:53:46.070Z,18.20
2022-12-15T12:56:39.913Z,15.23
2022-12-15T12:59:29.202Z,20.97
2022-12-15T13:01:57.256Z,14.67
2022-12-15T13:04:29.899Z,17.77
2022-12-15T13:07:01.910Z,20.53
2022-12-15T13:09:39.656Z,11.97
2022-12-15T13:12:50.873Z,11.87
2022-12-15T13:15:27.209Z,9.80
2022-12-15T13:18:16.415Z,12.27
2022-12-15T13:20:45.310Z,16.77
2022-12-15T13:23:16.509Z,13.10
2022-12-15T13:25:48.590Z,13.33
2022-12-15T13:28:39.153Z,18.77
2022-12-15T13:31:18.596Z,12.77
2022-12-15T13:33:59.368Z,19.90
2022-12-15T13:36:38.191Z,13.10
2022-12-15T13:39:30.512Z,11.17
2022-12-15T13:44:58.137Z,15.10
2022-12-15T13:47:28.454Z,14.43
2022-12-15T13:50:15.618Z,15.10
2022-12-15T13:53:17.760Z,14.00
2022-12-15T13:55:46.548Z,16.47
2022-12-15T13:58:19.571Z,13.20
2022-12-15T14:00:54.011Z,12.83
2022-12-15T14:03:21.416Z,20.23
2022-12-15T14:05:52.047Z,13.50
2022-12-15T14:08:21.680Z,13.57
2022-12-15T14:10:53.666Z,11.20
2022-12-15T14:13:26.812Z,15.90
2022-12-15T14:15:55.533Z,12.00
2022-12-15T14:18:23.349Z,21.73
2022-12-15T14:20:50.246Z,18.63
2022-12-15T14:23:19.884Z,12.93
2022-12-15T14:26:06.651Z,14.90
2022-12-15T14:28:36.718Z,16.00
2022-12-15T14:31:12.674Z,15.20
2022-12-15T14:33:43.792Z,10.90
2022-12-15T14:36:12.565Z,13.77
2022-12-15T14:38:45.020Z,13.17
2022-12-15T14:41:22.381Z,13.90
2022-12-15T14:44:36.681Z,15.60
2022-12-15T14:46:37.373Z,15.57
2022-12-15T14:49:07.331Z,20.00
2022-12-15T14:51:44.298Z,15.07
2022-12-15T14:54:30.011Z,14.73
2022-12-15T14:57:16.063Z,11.30
2022-12-15T14:59:45.491Z,16.87
2022-12-15T15:02:23.177Z,16.27
2022-12-15T15:05:03.553Z,14.57
2022-12-15T15:07:32.679Z,19.50
2022-12-15T15:10:00.858Z,14.07
2022-12-15T15:12:48.759Z,22.03
2022-12-15T15:15:20.706Z,16.47
2022-12-15T15:17:53.842Z,17.07
2022-12-15T15:20:29.173Z,16.00
2022-12-15T15:23:08.189Z,13.00
2022-12-15T15:25:50.031Z,14.73
2022-12-15T15:28:19.566Z,17.43
2022-12-15T15:30:48.603Z,16.60
2022-12-15T15:33:16.441Z,15.23
2022-12-15T15:35:44.991Z,16.00
2022-12-15T15:38:18.836Z,18.90
2022-12-15T15:40:54.662Z,16.03
2022-12-15T15:43:23.050Z,17.50
2022-12-15T15:46:00.867Z,16.93
2022-12-15T15:48:32.699Z,16.33
2022-12-15T15:51:01.055Z,21.33
2022-12-15T15:53:31.651Z,16.97
2022-12-15T15:55:59.396Z,21.40
2022-12-15T15:58:26.284Z,24.27
2022-12-15T16:00:53.571Z,23.17
2022-12-15T16:03:20.426Z,24.43
2022-12-15T16:05:47.330Z,19.50
2022-12-15T16:08:17.954Z,17.27
2022-12-15T16:10:47.440Z,20.10
2022-12-15T16:13:20.796Z,19.67
2022-12-15T16:15:50.826Z,19.97
2022-12-15T16:18:17.789Z,22.40
2022-12-15T16:20:47.661Z,21.90
2022-12-15T16:23:27.187Z,24.03
2022-12-15T16:25:57.542Z,22.97
2022-12-15T16:28:28.463Z,28.67
2022-12-15T16:30:56.155Z,24.13
2022-12-15T16:33:22.750Z,28.63
2022-12-15T16:35:50.525Z,42.93
2022-12-15T16:38:26.069Z,24.93
2022-12-15T16:40:55.507Z,27.00
2022-12-15T16:43:32.904Z,24.10
2022-12-15T16:46:04.095Z,20.50
2022-12-15T16:48:31.049Z,25.13
2022-12-15T16:50:59.641Z,19.50
2022-12-15T16:53:31.851Z,24.70
2022-12-15T16:56:00.222Z,23.20
2022-12-15T16:58:28.687Z,21.30
2022-12-15T17:00:56.319Z,20.17
2022-12-15T17:03:26.655Z,17.80
2022-12-15T17:05:59.395Z,20.83
2022-12-15T17:08:33.276Z,20.77
2022-12-15T17:11:00.663Z,19.93
2022-12-15T17:13:40.612Z,121.33
2022-12-15T17:16:14.482Z,35.60
2022-12-15T17:18:42.739Z,53.73
2022-12-15T17:21:14.378Z,26.60
2022-12-15T17:23:44.601Z,18.60
2022-12-15T17:26:27.548Z,20.97
2022-12-15T17:28:58.984Z,25.30
2022-12-15T17:31:30.321Z,25.93
2022-12-15T17:34:05.279Z,23.23
2022-12-15T17:36:32.141Z,21.53
2022-12-15T17:39:00.976Z,16.30
2022-12-15T17:41:58.182Z,19.00
2022-12-15T17:44:40.766Z,21.73
2022-12-15T17:47:08.829Z,23.53
2022-12-15T17:49:38.576Z,23.27
2022-12-15T17:52:11.435Z,29.23
2022-12-15T17:54:38.085Z,39.87
2022-12-15T17:57:04.638Z,39.43
2022-12-15T17:59:32.196Z,41.13
2022-12-15T18:01:58.854Z,51.07
2022-12-15T18:04:25.516Z,48.67
2022-12-15T18:06:58.111Z,50.33
2022-12-15T18:09:51.172Z,49.63
2022-12-15T18:12:23.677Z,53.53
2022-12-15T18:14:50.662Z,44.60
2022-12-15T18:17:17.533Z,35.13
2022-12-15T18:19:45.002Z,39.67
2022-12-15T18:22:22.890Z,30.20
2022-12-15T18:24:51.646Z,25.87
2022-12-15T18:27:22.562Z,31.33
2022-12-15T18:29:50.376Z,22.07
2022-12-15T18:32:17.943Z,21.03
2022-12-15T18:34:45.376Z,23.17
2022-12-15T18:37:16.392Z,24.03
2022-12-15T18:39:43.789Z,24.20
2022-12-15T18:42:19.090Z,24.50
2022-12-15T18:44:47.887Z,37.27
2022-12-15T18:47:16.811Z,35.00
2022-12-15T18:49:43.715Z,32.97
2022-12-15T18:52:21.793Z,28.60
2022-12-15T18:54:49.650Z,38.20
2022-12-15T18:57:29.090Z,32.23
2022-12-15T19:00:07.804Z,29.90
2022-12-15T19:02:34.521Z,35.37
2022-12-15T19:05:01.290Z,37.60
2022-12-15T19:07:27.856Z,36.63
2022-12-15T19:09:55.106Z,34.40
2022-12-15T19:12:21.798Z,35.33
2022-12-15T19:14:50.903Z,34.13
2022-12-15T19:17:38.783Z,47.00
2022-12-15T19:20:35.319Z,59.63
2022-12-15T19:23:02.088Z,47.53
2022-12-15T19:25:29.672Z,30.53
2022-12-15T19:27:59.840Z,23.83
2022-12-15T19:30:41.753Z,27.80
2022-12-15T19:33:09.787Z,26.87
2022-12-15T19:35:37.646Z,30.23
2022-12-15T19:38:05.679Z,20.73
2022-12-15T19:40:36.474Z,35.23
2022-12-15T19:43:04.284Z,24.17
2022-12-15T19:45:32.343Z,20.70
2022-12-15T19:47:59.847Z,22.57
2022-12-15T19:50:35.966Z,24.83
2022-12-15T19:53:07.202Z,25.57
2022-12-15T19:55:36.354Z,21.70
2022-12-15T19:58:22.237Z,22.37
2022-12-15T20:00:54.568Z,24.93
2022-12-15T20:03:21.750Z,27.17
2022-12-15T20:05:50.841Z,27.50
2022-12-15T20:08:26.782Z,30.60
2022-12-15T20:10:55.310Z,25.93
2022-12-15T20:13:22.349Z,27.33
2022-12-15T20:15:49.296Z,26.83
2022-12-15T20:18:15.963Z,23.17
2022-12-15T20:20:45.597Z,20.30
2022-12-15T20:23:29.010Z,19.30
2022-12-15T20:25:56.712Z,17.50
2022-12-15T20:28:28.114Z,21.70
2022-12-15T20:30:56.501Z,28.33
2022-12-15T20:33:23.781Z,26.00
2022-12-15T20:35:51.301Z,20.13
2022-12-15T20:38:28.371Z,24.90
2022-12-15T20:40:55.947Z,23.60
2022-12-15T20:43:24.228Z,22.03
2022-12-15T20:46:05.304Z,17.60
2022-12-15T20:48:34.656Z,26.60
2022-12-15T20:51:07.412Z,26.40
2022-12-15T20:53:36.071Z,18.93
2022-12-15T20:56:03.149Z,22.53
2022-12-15T20:58:33.258Z,20.77
2022-12-15T21:01:00.349Z,18.27
2022-12-15T21:03:34.274Z,23.47
2022-12-15T21:06:01.778Z,23.20
2022-12-15T21:08:31.162Z,22.70
2022-12-15T21:11:07.367Z,18.73
2022-12-15T21:13:35.620Z,22.30
2022-12-15T21:16:02.606Z,18.37
2022-12-15T21:19:03.905Z,23.73
2022-12-15T21:21:31.051Z,29.23
2022-12-15T21:23:59.338Z,31.80
2022-12-15T21:26:26.382Z,40.73
2022-12-15T21:28:59.573Z,38.53
2022-12-15T21:31:26.553Z,43.00
2022-12-15T21:33:53.268Z,37.47
2022-12-15T21:36:21.867Z,38.80
2022-12-15T21:38:51.821Z,38.37
2022-12-15T21:41:21.968Z,25.03
2022-12-15T21:43:49.328Z,22.00
2022-12-15T21:46:20.569Z,27.20
2022-12-15T21:49:08.509Z,28.37
2022-12-15T21:51:37.879Z,31.60
2022-12-15T21:54:06.386Z,33.30
2022-12-15T21:56:32.939Z,24.13
2022-12-15T21:58:59.606Z,30.77
2022-12-15T22:01:30.876Z,24.20
2022-12-15T22:04:01.125Z,19.07
2022-12-15T22:06:29.721Z,19.53
2022-12-15T22:09:00.877Z,19.30
2022-12-15T22:11:30.041Z,19.63
2022-12-15T22:13:58.928Z,21.17
2022-12-15T22:16:25.763Z,17.43
2022-12-15T22:18:55.779Z,18.77
2022-12-15T22:21:24.789Z,13.50
2022-12-15T22:23:52.162Z,18.17
2022-12-15T22:26:28.647Z,17.37
2022-12-15T22:28:56.918Z,20.43
2022-12-15T22:31:23.468Z,18.93
2022-12-15T22:33:50.063Z,17.77
2022-12-15T22:36:17.558Z,23.63
2022-12-15T22:38:44.933Z,21.23
2022-12-15T22:41:20.649Z,21.63
2022-12-15T22:43:52.660Z,23.43
2022-12-15T22:46:22.445Z,22.43
2022-12-15T22:48:51.971Z,19.87
2022-12-15T22:51:19.507Z,18.67
2022-12-15T22:53:46.573Z,21.00
2022-12-15T22:56:25.867Z,19.23
2022-12-15T22:59:02.607Z,17.60
2022-12-15T23:01:30.173Z,22.63
2022-12-15T23:03:56.973Z,16.13
2022-12-15T23:06:23.999Z,20.87
2022-12-15T23:08:55.612Z,26.17
2022-12-15T23:11:38.748Z,21.50
2022-12-15T23:14:13.345Z,20.37
2022-12-15T23:16:40.453Z,22.80
2022-12-15T23:19:08.397Z,19.87
2022-12-15T23:21:35.836Z,28.20
2022-12-15T23:24:02.410Z,26.13
2022-12-15T23:26:29.218Z,25.53
2022-12-15T23:28:55.861Z,21.63
2022-12-15T23:31:23.036Z,26.70
2022-12-15T23:33:50.083Z,22.13
2022-12-15T23:36:18.868Z,19.90
2022-12-15T23:38:45.434Z,30.30
2022-12-15T23:41:15.885Z,20.50
2022-12-15T23:43:42.811Z,19.73
2022-12-15T23:46:09.968Z,27.80
2022-12-15T23:48:42.231Z,18.97
2022-12-15T23:51:17.729Z,17.53
2022-12-15T23:53:46.375Z,19.03
2022-12-15T23:56:16.331Z,21.70
2022-12-15T23:58:45.616Z,25.40
